Howard Beach, New York
Current Conditions -  °F | °C
As of 4:51 PM on Tuesday 25 Nov 2014 (Local Time) from KJFK Reporting Station
Broken Clouds Broken Clouds  
Wind Chill: 51°   Ceiling: 20000
Heat Index: 51°   Visibility: 10mi
Dew Point: 31°   Wind: 9mph
Humidity: 46%   Direction: 230°SW
Pressure: 30.04"   Gusts: NA
Location:  40.66°N, 73.84°W
Report Text: KJFK 252151Z 23008KT 10SM FEW055 BKN200 BKN250 11/M01 A3004 RMK AO2 SLP172 T01061006
Loading
Personal Weather Stations






























Interactive Weather Map New forecast layout! Learn more

10-Day Weather Forecast

Advertisements
Track Severe Weather on mobile